createdAt,value
2023-05-02T00:00:47.636Z,10.7
2023-05-02T00:04:58.207Z,10.7
2023-05-02T00:07:02.123Z,10.7
2023-05-02T00:11:10.024Z,10.7
2023-05-02T00:15:17.681Z,10.7
2023-05-02T00:17:24.487Z,10.7
2023-05-02T00:19:28.253Z,10.7
2023-05-02T00:21:32.181Z,10.7
2023-05-02T00:22:35.537Z,10.7
2023-05-02T00:24:39.432Z,10.7
2023-05-02T00:28:47.224Z,10.7
2023-05-02T00:30:54.041Z,10.7
2023-05-02T00:32:57.839Z,10.7
2023-05-02T00:35:01.735Z,10.7
2023-05-02T00:39:09.470Z,10.7
2023-05-02T00:41:13.373Z,10.7
2023-05-02T00:43:17.283Z,10.7
2023-05-02T00:45:24.032Z,10.7
2023-05-02T00:47:27.866Z,10.7
2023-05-02T00:49:31.787Z,10.7
2023-05-02T00:53:39.520Z,10.6
2023-05-02T00:55:43.416Z,10.7
2023-05-02T00:57:47.298Z,10.6
2023-05-02T00:59:54.005Z,10.6
2023-05-02T01:01:57.967Z,10.7
2023-05-02T01:04:01.964Z,10.6
2023-05-02T01:06:05.713Z,10.6
2023-05-02T01:08:09.578Z,10.6
2023-05-02T01:10:13.471Z,10.7
2023-05-02T01:12:17.358Z,10.6
2023-05-02T01:14:24.070Z,10.6
2023-05-02T01:16:27.975Z,10.6
2023-05-02T01:18:31.827Z,10.6
2023-05-02T01:25:09.258Z,10.5
2023-05-02T01:37:35.423Z,10.1
2023-05-02T01:39:39.293Z,10.1
2023-05-02T01:41:46.002Z,10.1
2023-05-02T01:43:49.916Z,10
2023-05-02T01:45:53.789Z,10
2023-05-02T01:50:01.814Z,10
2023-05-02T01:56:16.066Z,10
2023-05-02T02:02:27.721Z,9.9
2023-05-02T02:08:39.343Z,9.9
2023-05-02T02:10:46.050Z,9.8
2023-05-02T02:15:57.129Z,9.8
2023-05-02T02:18:01.132Z,9.8
2023-05-02T02:20:04.936Z,9.8
2023-05-02T02:24:15.513Z,9.8
2023-05-02T02:26:19.411Z,9.8
2023-05-02T02:30:28.658Z,9.8
2023-05-02T02:32:32.552Z,9.8
2023-05-02T02:36:40.283Z,9.7
2023-05-02T02:38:46.969Z,9.7
2023-05-02T02:40:50.840Z,9.7
2023-05-02T02:42:54.733Z,9.7
2023-05-02T02:44:58.584Z,9.7
2023-05-02T02:47:02.486Z,9.8
2023-05-02T02:51:10.240Z,9.7
2023-05-02T02:53:16.933Z,9.7
2023-05-02T03:09:50.754Z,9.7
2023-05-02T03:11:54.670Z,9.7
2023-05-02T03:12:57.997Z,9.7
2023-05-02T03:15:01.869Z,9.7
2023-05-02T03:17:05.767Z,9.8
2023-05-02T03:19:09.640Z,9.7
2023-05-02T03:21:16.354Z,9.7
2023-05-02T03:23:20.210Z,9.7
2023-05-02T03:25:24.095Z,9.7
2023-05-02T03:27:27.960Z,9.8
2023-05-02T03:37:50.143Z,9.7
2023-05-02T03:46:05.675Z,9.7
2023-05-02T03:48:09.599Z,9.7
2023-05-02T03:56:27.864Z,9.6
2023-05-02T04:02:39.578Z,9.4
2023-05-02T04:04:46.211Z,9.4
2023-05-02T04:06:50.187Z,9.4
2023-05-02T04:08:53.920Z,9.4
2023-05-02T04:09:57.431Z,9.4
2023-05-02T04:18:15.594Z,9.3
2023-05-02T04:20:19.446Z,9.3
2023-05-02T04:22:23.288Z,9.2
2023-05-02T04:24:27.155Z,9.3
2023-05-02T04:26:31.071Z,9.2
2023-05-02T04:28:34.939Z,9.2
2023-05-02T04:30:38.847Z,9.2
2023-05-02T04:32:45.580Z,9.1
2023-05-02T04:34:49.435Z,9.1
2023-05-02T04:38:57.175Z,9.1
2023-05-02T04:45:08.803Z,8.9
2023-05-02T04:47:15.488Z,8.9
2023-05-02T04:49:19.371Z,8.8
2023-05-02T04:51:23.187Z,8.9
2023-05-02T04:53:27.101Z,8.8
2023-05-02T04:55:30.943Z,8.8
2023-05-02T04:57:34.813Z,8.8
2023-05-02T04:59:38.672Z,8.8
2023-05-02T05:08:17.065Z,8.7
2023-05-02T05:10:21.023Z,8.7
2023-05-02T05:12:24.873Z,8.7
2023-05-02T05:14:31.559Z,8.6
2023-05-02T05:18:39.276Z,8.7
2023-05-02T05:24:50.890Z,8.6
2023-05-02T05:26:54.730Z,8.6
2023-05-02T05:35:12.968Z,8.6
2023-05-02T05:43:31.238Z,8.5
2023-05-02T05:45:35.086Z,8.5
2023-05-02T05:47:39.141Z,8.6
2023-05-02T05:53:50.508Z,8.6
2023-05-02T05:55:54.457Z,8.8
2023-05-02T05:58:01.143Z,8.6
2023-05-02T06:00:04.995Z,8.6
2023-05-02T06:02:08.900Z,8.7
2023-05-02T06:03:12.376Z,8.6
2023-05-02T06:09:23.809Z,8.5
2023-05-02T06:13:34.367Z,8.6
2023-05-02T06:19:45.952Z,8.8
2023-05-02T06:21:49.814Z,8.9
2023-05-02T06:26:00.347Z,8.9
2023-05-02T06:30:08.075Z,9
2023-05-02T06:38:23.563Z,9
2023-05-02T06:42:34.116Z,9.3
2023-05-02T06:44:37.984Z,9.2
2023-05-02T06:46:41.950Z,9.3
2023-05-02T06:48:45.726Z,9.2
2023-05-02T06:50:49.682Z,9
2023-05-02T06:55:00.194Z,9
2023-05-02T07:00:11.294Z,8.9
2023-05-02T07:02:15.151Z,9
2023-05-02T07:04:19.102Z,9.1
2023-05-02T07:06:22.931Z,9.1
2023-05-02T07:08:29.600Z,8.8
2023-05-02T07:10:33.473Z,8.6
2023-05-02T07:12:37.338Z,8.4
2023-05-02T07:14:41.205Z,8.3
2023-05-02T07:16:45.137Z,8.4
2023-05-02T07:18:48.944Z,8.5
2023-05-02T07:20:52.830Z,8.5
2023-05-02T07:22:59.503Z,8.6
2023-05-02T07:25:03.458Z,8.7
2023-05-02T07:27:07.273Z,8.7
2023-05-02T07:29:11.139Z,8.8
2023-05-02T07:31:16.111Z,9.2
2023-05-02T07:33:18.954Z,9.3
2023-05-02T07:35:22.753Z,9.6
2023-05-02T07:37:29.447Z,9.8
2023-05-02T07:39:33.300Z,9.7
2023-05-02T07:41:37.185Z,9.6
2023-05-02T07:43:41.057Z,9.9
2023-05-02T07:45:44.956Z,10.1
2023-05-02T07:49:52.690Z,10.4
2023-05-02T07:51:59.408Z,10.9
2023-05-02T07:54:03.297Z,11.1
2023-05-02T07:56:07.187Z,11
2023-05-02T07:57:10.526Z,10.9
2023-05-02T07:59:14.413Z,10.8
2023-05-02T08:01:18.341Z,10.7
2023-05-02T08:03:22.343Z,10.5
2023-05-02T08:05:28.907Z,10.9
2023-05-02T08:07:32.795Z,11.2
2023-05-02T08:09:36.729Z,11.4
2023-05-02T08:11:40.608Z,11.3
2023-05-02T08:13:44.502Z,10.7
2023-05-02T08:15:48.445Z,10.5
2023-05-02T08:17:52.375Z,10.6
2023-05-02T08:19:59.213Z,10.7
2023-05-02T08:22:02.998Z,10.6
2023-05-02T08:24:06.874Z,10.9
2023-05-02T08:28:16.212Z,10.5
2023-05-02T08:30:20.080Z,10.4
2023-05-02T08:32:23.962Z,10.2
2023-05-02T08:36:34.597Z,10.5
2023-05-02T08:38:38.534Z,10.8
2023-05-02T08:40:43.322Z,10.7
2023-05-02T08:42:46.389Z,11
2023-05-02T08:44:50.247Z,11.4
2023-05-02T08:51:04.782Z,11.4
2023-05-02T08:53:08.716Z,10.7
2023-05-02T08:55:38.401Z,12.1
2023-05-02T08:57:42.312Z,12.3
2023-05-02T08:59:46.200Z,12.6
2023-05-02T09:01:52.958Z,12.5
2023-05-02T09:08:04.696Z,11.6
2023-05-02T09:12:12.537Z,12.1
2023-05-02T09:20:31.060Z,12.1
2023-05-02T09:22:35.100Z,11.7
2023-05-02T09:24:38.909Z,11.9
2023-05-02T09:28:46.779Z,11.9
2023-05-02T09:30:53.554Z,12.9
2023-05-02T09:35:01.537Z,13
2023-05-02T09:37:05.285Z,12.8
2023-05-02T09:41:13.269Z,13.7
2023-05-02T09:43:17.143Z,13.5
2023-05-02T09:50:35.213Z,12.5
2023-05-02T09:52:38.998Z,12.5
2023-05-02T09:54:42.951Z,12.8
2023-05-02T09:58:53.605Z,12.3
2023-05-02T10:03:01.502Z,13
2023-05-02T10:05:05.377Z,13.9
2023-05-02T10:07:09.322Z,14.1
2023-05-02T10:09:16.591Z,14
2023-05-02T10:11:17.194Z,13.4
2023-05-02T10:13:23.932Z,13.3
2023-05-02T10:15:27.917Z,13.6
2023-05-02T10:17:31.864Z,13.6
2023-05-02T10:19:35.720Z,12.8
2023-05-02T10:23:43.589Z,13.3
2023-05-02T10:29:58.218Z,13.4
2023-05-02T10:32:02.168Z,13.3
2023-05-02T10:34:06.043Z,13.5
2023-05-02T10:36:09.984Z,12.9
2023-05-02T10:38:13.921Z,12.5
2023-05-02T10:42:24.598Z,13.4
2023-05-02T10:47:35.922Z,14
2023-05-02T10:49:39.780Z,14.1
2023-05-02T10:51:43.697Z,14.9
2023-05-02T10:53:47.643Z,13.2
2023-05-02T10:55:54.379Z,12.5
2023-05-02T10:57:58.331Z,12.2
2023-05-02T11:00:02.286Z,13
2023-05-02T11:02:07.079Z,13.8
2023-05-02T11:06:14.205Z,14.8
2023-05-02T11:10:24.758Z,15.5
2023-05-02T11:12:28.690Z,14.9
2023-05-02T11:14:32.634Z,14.5
2023-05-02T11:16:36.618Z,14.4
2023-05-02T11:18:40.506Z,15.4
2023-05-02T11:20:44.392Z,15.9
2023-05-02T11:24:55.102Z,13.9
2023-05-02T11:26:59.028Z,14
2023-05-02T11:33:10.852Z,14.8
2023-05-02T11:35:14.750Z,14.9
2023-05-02T11:37:18.705Z,15
2023-05-02T11:39:25.463Z,14
2023-05-02T11:41:29.366Z,14.1
2023-05-02T11:43:33.314Z,14.6
2023-05-02T11:48:44.552Z,15.4
2023-05-02T11:50:50.478Z,14.4
2023-05-02T11:52:55.281Z,13.9
2023-05-02T11:54:59.628Z,14.5
2023-05-02T11:57:03.090Z,15.2
2023-05-02T11:59:07.040Z,15.4
2023-05-02T12:01:11.165Z,16.4
2023-05-02T12:03:15.091Z,14.1
2023-05-02T12:05:18.901Z,12.9
2023-05-02T12:13:37.413Z,14.3
2023-05-02T12:15:41.470Z,13.7
2023-05-02T12:19:49.192Z,13.7
2023-05-02T12:21:55.975Z,13.4
2023-05-02T12:23:59.909Z,13.9
2023-05-02T12:26:03.826Z,13.3
2023-05-02T12:28:07.796Z,13.7
2023-05-02T12:30:11.698Z,14.4
2023-05-02T12:32:15.618Z,14
2023-05-02T12:34:19.552Z,13.5
2023-05-02T12:38:30.261Z,14.1
2023-05-02T12:51:22.397Z,14
2023-05-02T12:55:30.236Z,14.2
2023-05-02T12:57:34.179Z,14.5
2023-05-02T13:22:26.934Z,15.3
2023-05-02T13:24:30.862Z,15.7
2023-05-02T13:28:38.723Z,16.4
2023-05-02T13:30:42.694Z,16.7
2023-05-02T13:32:49.448Z,16.5
2023-05-02T13:34:53.327Z,15.3
2023-05-02T13:36:57.251Z,14.8
2023-05-02T13:38:00.632Z,14.4
2023-05-02T13:40:04.767Z,14.2
2023-05-02T13:42:08.461Z,13.8
2023-05-02T13:46:19.203Z,13.4
2023-05-02T13:56:38.784Z,13.2
2023-05-02T13:58:42.735Z,13.2
2023-05-02T14:00:49.506Z,12.6
2023-05-02T14:02:53.568Z,12.5
2023-05-02T14:04:57.347Z,13
2023-05-02T14:07:01.238Z,13.3
2023-05-02T14:11:09.105Z,13.6
2023-05-02T14:13:13.041Z,13.9
2023-05-02T14:15:19.658Z,13.4
2023-05-02T14:21:31.431Z,12.5
2023-05-02T14:23:35.378Z,12.8
2023-05-02T14:27:44.693Z,14.1
2023-05-02T14:33:59.302Z,13.2
2023-05-02T14:35:02.676Z,13
2023-05-02T14:41:14.434Z,14.4
2023-05-02T14:43:21.214Z,14.4
2023-05-02T14:45:25.109Z,14.2
2023-05-02T14:47:29.058Z,14.2
2023-05-02T14:49:32.965Z,14.6
2023-05-02T14:51:36.940Z,14.6
2023-05-02T14:53:40.827Z,14.2
2023-05-02T14:55:44.751Z,14.1
2023-05-02T14:57:51.524Z,14.5
2023-05-02T14:59:55.459Z,14.7
2023-05-02T15:01:59.517Z,14.6
2023-05-02T15:04:07.238Z,14.3
2023-05-02T15:06:07.321Z,14.3
2023-05-02T15:08:11.171Z,14.1
2023-05-02T15:10:15.103Z,13.6
2023-05-02T15:12:21.845Z,13.2
2023-05-02T15:14:25.792Z,13.1
2023-05-02T15:20:37.584Z,13
2023-05-02T15:22:41.548Z,13
2023-05-02T15:24:45.413Z,13.4
2023-05-02T15:26:52.172Z,13.5
2023-05-02T15:28:56.075Z,13.4
2023-05-02T15:31:00.091Z,13.2
2023-05-02T15:36:11.240Z,12.9
2023-05-02T15:38:15.155Z,13.4
2023-05-02T15:40:21.891Z,13.7
2023-05-02T15:42:25.813Z,13.7
2023-05-02T15:44:29.731Z,13.3
2023-05-02T15:46:33.731Z,13.1
2023-05-02T15:50:41.509Z,12.7
2023-05-02T15:52:45.423Z,12.3
2023-05-02T15:54:52.193Z,12.7
2023-05-02T15:56:56.098Z,12.8
2023-05-02T15:59:00.008Z,12.6
2023-05-02T16:01:03.942Z,12.7
2023-05-02T16:03:07.931Z,12.7
2023-05-02T16:05:11.785Z,12.7
2023-05-02T16:07:15.718Z,12.3
2023-05-02T16:09:22.446Z,12.1
2023-05-02T16:11:26.341Z,12.2
2023-05-02T16:13:30.257Z,12.3
2023-05-02T16:15:34.202Z,12.5
2023-05-02T16:17:38.156Z,12.6
2023-05-02T16:19:42.036Z,12.6
2023-05-02T16:21:45.962Z,12.5
2023-05-02T16:23:52.699Z,12.8
2023-05-02T16:25:56.615Z,12.8
2023-05-02T16:30:30.192Z,12.6
2023-05-02T16:32:34.132Z,12.6
2023-05-02T16:34:38.252Z,12.5
2023-05-02T16:38:48.918Z,12.8
2023-05-02T16:40:52.845Z,13
2023-05-02T16:53:19.170Z,12.4
2023-05-02T16:57:27.024Z,12.1
2023-05-02T16:59:30.980Z,11.7
2023-05-02T17:01:34.922Z,11.7
2023-05-02T17:03:38.975Z,11.8
2023-05-02T17:05:45.547Z,11.6
2023-05-02T17:07:49.465Z,11.4
2023-05-02T17:09:53.712Z,11.2
2023-05-02T17:11:57.304Z,11.1
2023-05-02T17:14:01.226Z,11
2023-05-02T17:18:09.068Z,10.7
2023-05-02T17:20:15.808Z,10.8
2023-05-02T17:24:23.624Z,10.8
2023-05-02T17:25:26.966Z,10.7
2023-05-02T17:37:53.208Z,10.7
2023-05-02T17:39:57.143Z,10.8
2023-05-02T17:44:05.018Z,10.8
2023-05-02T17:48:15.624Z,10.6
2023-05-02T17:52:23.367Z,10.8
2023-05-02T17:54:27.233Z,10.9
2023-05-02T17:56:31.131Z,10.8
2023-05-02T17:58:35.028Z,10.8
2023-05-02T18:00:38.935Z,10.6
2023-05-02T18:02:45.790Z,10.5
2023-05-02T18:04:49.552Z,10.4
2023-05-02T18:06:53.581Z,10.4
2023-05-02T18:08:57.341Z,10.3
2023-05-02T18:11:01.355Z,10.4
2023-05-02T18:13:05.144Z,10.4
2023-05-02T18:22:26.924Z,10.1
2023-05-02T18:24:30.818Z,10.2
2023-05-02T18:26:34.699Z,10.1
2023-05-02T18:28:38.585Z,10.1
2023-05-02T18:30:45.277Z,10.1
2023-05-02T18:32:49.188Z,10.1
2023-05-02T18:34:53.080Z,10.2
2023-05-02T18:36:56.943Z,10.1
2023-05-02T18:39:00.842Z,10.1
2023-05-02T18:41:04.715Z,10.1
2023-05-02T18:43:08.573Z,10
2023-05-02T18:45:15.286Z,10
2023-05-02T18:47:19.185Z,10
2023-05-02T18:51:26.946Z,9.8
2023-05-02T18:53:30.824Z,9.8
2023-05-02T18:55:34.718Z,9.7
2023-05-02T18:57:38.614Z,9.6
2023-05-02T18:59:45.286Z,9.7
2023-05-02T19:03:53.229Z,9.6
2023-05-02T19:05:56.994Z,9.6
2023-05-02T19:08:00.863Z,9.5
2023-05-02T19:10:04.719Z,9.4
2023-05-02T19:12:08.603Z,9.3
2023-05-02T19:14:15.356Z,9.3
2023-05-02T19:16:19.226Z,9.3
2023-05-02T19:18:23.084Z,9.3
2023-05-02T19:21:30.254Z,9.2
2023-05-02T19:23:34.108Z,9.2
2023-05-02T19:25:37.996Z,9.2
2023-05-02T19:27:44.683Z,9.1
2023-05-02T19:29:48.540Z,9.1
2023-05-02T19:33:56.269Z,9.1
2023-05-02T19:36:00.172Z,9
2023-05-02T19:38:04.033Z,9
2023-05-02T19:40:07.886Z,9
2023-05-02T19:42:14.578Z,9
2023-05-02T19:46:22.393Z,8.9
2023-05-02T19:50:30.079Z,9
2023-05-02T19:52:33.918Z,9.1
2023-05-02T19:54:37.767Z,9.1
2023-05-02T19:56:44.437Z,9
2023-05-02T19:58:48.349Z,9
2023-05-02T20:00:52.220Z,9
2023-05-02T20:02:56.143Z,8.9
2023-05-02T20:07:03.791Z,8.8
2023-05-02T20:11:14.372Z,8.7
2023-05-02T20:13:18.202Z,8.7
2023-05-02T20:15:22.081Z,8.7
2023-05-02T20:22:00.971Z,8.5
2023-05-02T20:24:07.611Z,8.4
2023-05-02T20:28:15.328Z,8.4
2023-05-02T20:32:23.133Z,8.3
2023-05-02T20:34:26.896Z,8.2
2023-05-02T20:36:30.734Z,8.2
2023-05-02T20:40:41.266Z,8.1
2023-05-02T20:51:00.555Z,7.9
2023-05-02T20:55:11.052Z,7.8
2023-05-02T21:05:30.328Z,7.7
2023-05-02T21:12:48.010Z,7.6
2023-05-02T21:14:51.825Z,7.6
2023-05-02T21:16:55.672Z,7.6
2023-05-02T21:18:59.523Z,7.5
2023-05-02T21:21:06.156Z,7.4
2023-05-02T21:23:09.986Z,7.4
2023-05-02T21:25:13.818Z,7.3
2023-05-02T21:27:17.734Z,7.3
2023-05-02T21:29:21.523Z,7.3
2023-05-02T21:31:25.412Z,7.4
2023-05-02T21:33:29.151Z,7.3
2023-05-02T21:35:35.802Z,7.3
2023-05-02T21:37:39.626Z,7.3
2023-05-02T21:39:43.521Z,7.3
2023-05-02T21:41:47.313Z,7.3
2023-05-02T21:43:51.140Z,7.3
2023-05-02T21:45:54.972Z,7.2
2023-05-02T21:47:58.825Z,7.1
2023-05-02T21:50:05.540Z,7
2023-05-02T21:52:09.240Z,7
2023-05-02T21:54:13.101Z,6.9
2023-05-02T21:58:20.733Z,6.8
2023-05-02T22:00:24.613Z,6.9
2023-05-02T22:09:46.062Z,6.8
2023-05-02T22:11:49.908Z,6.7
2023-05-02T22:13:53.648Z,6.6
2023-05-02T22:15:57.451Z,6.6
2023-05-02T22:18:04.211Z,6.5
2023-05-02T22:20:08.086Z,6.4
2023-05-02T22:22:11.905Z,6.5
2023-05-02T22:24:15.721Z,6.6
2023-05-02T22:26:19.534Z,6.6
2023-05-02T22:28:23.475Z,6.6
2023-05-02T22:30:27.268Z,6.5
2023-05-02T22:32:34.006Z,6.5
2023-05-02T22:34:37.766Z,6.5
2023-05-02T22:36:41.659Z,6.5
2023-05-02T22:38:45.463Z,6.5
2023-05-02T22:40:49.379Z,6.4
2023-05-02T22:42:53.277Z,6.3
2023-05-02T22:47:03.668Z,6.1
2023-05-02T23:01:32.947Z,6
2023-05-02T23:03:36.789Z,6.1
2023-05-02T23:05:40.501Z,6.1
2023-05-02T23:06:43.819Z,6.1
2023-05-02T23:08:47.593Z,6.1
2023-05-02T23:10:51.402Z,6
2023-05-02T23:12:55.303Z,6
2023-05-02T23:15:01.903Z,6
2023-05-02T23:19:09.455Z,6
2023-05-02T23:21:13.245Z,5.9
2023-05-02T23:23:17.060Z,5.9
2023-05-02T23:25:20.802Z,5.9
2023-05-02T23:27:24.616Z,5.9
2023-05-02T23:29:31.280Z,5.8
2023-05-02T23:31:35.059Z,5.8
2023-05-02T23:33:38.830Z,5.8
2023-05-02T23:35:42.602Z,5.7
2023-05-02T23:37:46.367Z,5.6
2023-05-02T23:39:50.199Z,5.6
2023-05-02T23:41:53.977Z,5.5
2023-05-02T23:44:00.603Z,5.4
2023-05-02T23:46:04.357Z,5.4
2023-05-02T23:48:08.198Z,5.3
2023-05-02T23:50:11.926Z,5.4
2023-05-02T23:52:15.717Z,5.4
2023-05-02T23:56:23.344Z,5.3
2023-05-02T23:58:30.167Z,5.3
